createdAt,value
2018-08-28T00:02:09.953Z,95723.38
2018-08-28T00:04:39.065Z,95724.69
2018-08-28T00:07:08.108Z,95730.64
2018-08-28T00:09:37.252Z,95730.34
2018-08-28T00:12:06.278Z,95735.77
2018-08-28T00:14:36.313Z,95741.03
2018-08-28T00:19:42.174Z,95740.05
2018-08-28T00:22:11.187Z,95741.01
2018-08-28T00:24:40.236Z,95741.78
2018-08-28T00:27:09.312Z,95743.75
2018-08-28T00:29:39.305Z,95740.03
2018-08-28T00:32:08.369Z,95740.29
2018-08-28T00:34:37.419Z,95742.75
2018-08-28T00:37:08.442Z,95739.95
2018-08-28T00:42:13.244Z,95745.19
2018-08-28T00:44:42.301Z,95746.66
2018-08-28T00:47:11.343Z,95747.43
2018-08-28T00:49:41.327Z,95751.91
2018-08-28T00:52:10.519Z,95751.72
2018-08-28T00:54:39.560Z,95751.70
2018-08-28T00:59:44.391Z,95753.09
2018-08-28T01:02:15.433Z,95753.31
2018-08-28T01:04:44.485Z,95755.98
2018-08-28T01:07:13.543Z,95755.63
2018-08-28T01:09:42.585Z,95762.14
2018-08-28T01:12:11.738Z,95761.20
2018-08-28T01:14:41.913Z,95761.31
2018-08-28T01:17:10.815Z,95760.83
2018-08-28T01:19:39.860Z,95756.19
2018-08-28T01:24:45.704Z,95764.67
2018-08-28T01:27:15.720Z,95766.63
2018-08-28T01:29:44.777Z,95767.43
2018-08-28T01:32:13.833Z,95767.66
2018-08-28T01:34:42.881Z,95766.80
2018-08-28T01:37:11.991Z,95771.33
2018-08-28T01:39:41.003Z,95761.20
2018-08-28T01:42:10.061Z,95762.07
2018-08-28T01:47:14.881Z,95756.25
2018-08-28T01:49:43.993Z,95753.72
2018-08-28T01:54:48.850Z,95763.41
2018-08-28T01:57:17.881Z,95761.46
2018-08-28T01:59:46.933Z,95762.75
2018-08-28T02:02:15.988Z,95759.47
2018-08-28T02:04:45.044Z,95757.31
2018-08-28T02:07:14.109Z,95758.02
2018-08-28T02:14:11.146Z,95757.09
2018-08-28T02:16:40.214Z,95764.69
2018-08-28T02:19:09.273Z,95760.33
2018-08-28T02:21:38.314Z,95753.55
2018-08-28T02:26:43.093Z,95757.56
2018-08-28T02:31:47.833Z,95758.26
2018-08-28T02:34:16.901Z,95753.34
2018-08-28T02:36:45.935Z,95751.86
2018-08-28T02:39:14.978Z,95752.05
2018-08-28T02:41:44.021Z,95750.66
2018-08-28T02:44:14.146Z,95760.22
2018-08-28T02:46:43.192Z,95761.25
2018-08-28T02:49:12.242Z,95760.89
2018-08-28T02:54:18.110Z,95759.11
2018-08-28T02:56:49.159Z,95759.61
2018-08-28T02:59:18.193Z,95756.78
2018-08-28T03:01:47.279Z,95757.70
2018-08-28T03:04:16.342Z,95759.02
2018-08-28T03:06:45.391Z,95758.67
2018-08-28T03:11:50.241Z,95762.55
2018-08-28T03:19:35.477Z,95761.70
2018-08-28T03:22:04.523Z,95770.33
2018-08-28T03:24:33.578Z,95771.41
2018-08-28T03:27:02.625Z,95768.50
2018-08-28T03:29:31.693Z,95771.92
2018-08-28T03:32:02.160Z,95773.36
2018-08-28T03:34:31.206Z,95777.64
2018-08-28T03:37:00.253Z,95773.23
2018-08-28T03:39:29.319Z,95776.71
2018-08-28T03:41:58.392Z,95780.21
2018-08-28T03:44:27.439Z,95779.30
2018-08-28T03:46:56.507Z,95772.30
2018-08-28T03:49:25.550Z,95775.06
2018-08-28T03:51:54.610Z,95780.13
2018-08-28T03:54:23.653Z,95776.47
2018-08-28T03:56:52.729Z,95783.84
2018-08-28T04:01:57.511Z,95786.63
2018-08-28T04:04:26.595Z,95790.69
2018-08-28T04:09:31.346Z,95789.04
2018-08-28T04:12:00.393Z,95787.17
2018-08-28T04:14:29.458Z,95790.11
2018-08-28T04:16:58.548Z,95792.84
2018-08-28T04:19:27.577Z,95790.78
2018-08-28T04:21:56.643Z,95789.36
2018-08-28T04:24:25.689Z,95788.56
2018-08-28T04:26:54.778Z,95794.20
2018-08-28T04:29:23.831Z,95793.67
2018-08-28T04:31:52.908Z,95798.51
2018-08-28T04:34:21.945Z,95796.96
2018-08-28T04:36:51.022Z,95801.22
2018-08-28T04:39:20.066Z,95797.48
2018-08-28T04:41:49.163Z,95795.35
2018-08-28T04:44:18.198Z,95796.38
2018-08-28T04:46:47.245Z,95797.62
2018-08-28T04:51:52.079Z,95797.03
2018-08-28T04:54:21.254Z,95800.98
2018-08-28T04:56:50.183Z,95801.19
2018-08-28T04:59:19.517Z,95806.45
2018-08-28T05:01:48.554Z,95809.66
2018-08-28T05:04:17.608Z,95809.50
2018-08-28T05:06:46.662Z,95811.36
2018-08-28T05:11:52.555Z,95812.02
2018-08-28T05:14:21.538Z,95815.67
2018-08-28T05:16:50.597Z,95818.49
2018-08-28T05:19:20.774Z,95814.91
2018-08-28T05:27:01.221Z,95812.31
2018-08-28T05:29:30.347Z,95813.31
2018-08-28T05:31:59.374Z,95814.47
2018-08-28T05:34:28.423Z,95812.68
2018-08-28T05:36:57.483Z,95811.68
2018-08-28T05:39:26.548Z,95815.31
2018-08-28T05:44:31.318Z,95824.11
2018-08-28T05:47:01.315Z,95826.15
2018-08-28T05:52:07.398Z,95832.06
2018-08-28T05:54:36.453Z,95829.23
2018-08-28T05:57:05.502Z,95832.63
2018-08-28T05:59:34.544Z,95828.00
2018-08-28T06:02:03.845Z,95826.31
2018-08-28T06:04:32.893Z,95832.06
2018-08-28T06:09:37.733Z,95829.30
2018-08-28T06:14:42.545Z,95834.42
2018-08-28T06:19:47.361Z,95832.65
2018-08-28T06:22:16.417Z,95830.98
2018-08-28T06:24:46.462Z,95833.66
2018-08-28T06:29:51.250Z,95839.61
2018-08-28T06:32:20.353Z,95838.56
2018-08-28T06:34:49.405Z,95836.80
2018-08-28T06:37:22.106Z,95835.86
2018-08-28T06:39:51.287Z,95838.21
2018-08-28T06:42:20.488Z,95837.58
2018-08-28T06:44:49.610Z,95833.78
2018-08-28T06:47:18.645Z,95835.14
2018-08-28T06:49:47.708Z,95830.86
2018-08-28T06:52:18.737Z,95835.47
2018-08-28T06:54:49.790Z,95835.96
2018-08-28T06:57:19.063Z,95839.63
2018-08-28T06:59:48.120Z,95835.31
2018-08-28T07:02:17.232Z,95828.03
2018-08-28T07:04:46.382Z,95824.44
2018-08-28T07:09:51.507Z,95823.11
2018-08-28T07:12:20.549Z,95823.30
2018-08-28T07:14:50.579Z,95824.80
2018-08-28T07:17:21.640Z,95829.19
2018-08-28T07:19:50.677Z,95831.70
2018-08-28T07:22:21.815Z,95826.34
2018-08-28T07:24:51.881Z,95828.64
2018-08-28T07:27:20.918Z,95824.34
2018-08-28T07:29:51.194Z,95826.78
2018-08-28T07:32:20.247Z,95829.28
2018-08-28T07:34:49.300Z,95826.27
2018-08-28T07:37:20.356Z,95826.92
2018-08-28T07:39:49.391Z,95823.34
2018-08-28T07:42:21.707Z,95822.17
2018-08-28T07:44:51.761Z,95827.31
2018-08-28T07:49:57.610Z,95830.91
2018-08-28T07:52:27.625Z,95831.30
2018-08-28T07:54:56.940Z,95832.81
2018-08-28T07:57:26.945Z,95829.25
2018-08-28T07:59:56.001Z,95829.15
2018-08-28T08:02:25.215Z,95832.28
2018-08-28T08:04:54.263Z,95835.53
2018-08-28T08:09:59.134Z,95827.98
2018-08-28T08:12:28.176Z,95834.50
2018-08-28T08:17:33.005Z,95834.34
2018-08-28T08:20:02.148Z,95835.56
2018-08-28T08:22:31.225Z,95834.23
2018-08-28T08:25:00.266Z,95835.44
2018-08-28T08:30:05.129Z,95834.84
2018-08-28T08:32:34.295Z,95832.61
2018-08-28T08:35:03.333Z,95835.55
2018-08-28T08:37:32.391Z,95831.26
2018-08-28T08:45:14.167Z,95828.26
2018-08-28T08:47:43.216Z,95825.23
2018-08-28T08:50:12.772Z,95821.86
2018-08-28T08:52:41.808Z,95822.16
2018-08-28T08:57:46.638Z,95827.45
2018-08-28T09:00:15.748Z,95821.31
2018-08-28T09:02:45.129Z,95819.39
2018-08-28T09:05:14.182Z,95816.44
2018-08-28T09:07:43.216Z,95817.63
2018-08-28T09:10:13.538Z,95806.52
2018-08-28T09:12:42.585Z,95814.08
2018-08-28T09:17:47.411Z,95808.81
2018-08-28T09:20:18.660Z,95805.42
2018-08-28T09:25:23.508Z,95798.72
2018-08-28T09:27:52.995Z,95800.92
2018-08-28T09:30:22.060Z,95797.67
2018-08-28T09:32:51.087Z,95801.34
2018-08-28T09:35:20.222Z,95807.45
2018-08-28T09:37:49.349Z,95803.38
2018-08-28T09:40:18.413Z,95799.00
2018-08-28T09:42:47.774Z,95796.08
2018-08-28T09:45:16.834Z,95789.64
2018-08-28T09:47:45.877Z,95780.54
2018-08-28T09:50:16.257Z,95782.16
2018-08-28T09:52:45.208Z,95781.30
2018-08-28T09:55:15.226Z,95780.30
2018-08-28T09:57:45.245Z,95779.15
2018-08-28T10:00:14.311Z,95777.25
2018-08-28T10:02:44.280Z,95772.02
2018-08-28T10:05:13.328Z,95766.92
2018-08-28T10:10:18.248Z,95766.91
2018-08-28T10:12:47.322Z,95766.77
2018-08-28T10:15:17.562Z,95762.68
2018-08-28T10:17:46.666Z,95766.02
2018-08-28T10:20:15.703Z,95769.77
2018-08-28T10:22:44.902Z,95774.34
2018-08-28T10:25:13.971Z,95771.64
2018-08-28T10:27:43.029Z,95774.25
2018-08-28T10:30:12.105Z,95773.80
2018-08-28T10:35:19.056Z,95768.81
2018-08-28T10:37:48.101Z,95769.77
2018-08-28T10:40:17.155Z,95764.97
2018-08-28T10:42:47.431Z,95760.30
2018-08-28T10:45:16.479Z,95758.23
2018-08-28T10:47:45.528Z,95759.03
2018-08-28T10:52:52.440Z,95745.06
2018-08-28T10:55:21.678Z,95746.78
2018-08-28T11:00:26.931Z,95744.90
2018-08-28T11:02:55.970Z,95733.94
2018-08-28T11:08:01.404Z,95734.44
2018-08-28T11:10:30.456Z,95733.78
2018-08-28T11:12:59.835Z,95732.53
2018-08-28T11:18:04.965Z,95723.19
2018-08-28T11:20:34.019Z,95720.20
2018-08-28T11:23:03.103Z,95729.97
2018-08-28T11:25:32.303Z,95724.25
2018-08-28T11:28:01.368Z,95725.77
2018-08-28T11:33:06.126Z,95716.08
2018-08-28T11:38:10.894Z,95717.01
2018-08-28T11:40:41.886Z,95712.64
2018-08-28T11:43:12.047Z,95707.42
2018-08-28T11:48:18.822Z,95703.97
2018-08-28T11:50:47.879Z,95703.80
2018-08-28T11:53:16.998Z,95708.73
2018-08-28T11:58:21.693Z,95705.91
2018-08-28T12:00:50.759Z,95704.92
2018-08-28T12:03:19.827Z,95708.25
2018-08-28T12:05:48.881Z,95700.07
2018-08-28T12:08:18.038Z,95692.61
2018-08-28T12:10:47.094Z,95696.58
2018-08-28T12:13:16.347Z,95691.58
2018-08-28T12:15:45.518Z,95679.23
2018-08-28T12:18:14.570Z,95674.35
2018-08-28T12:20:45.663Z,95676.12
2018-08-28T12:23:18.594Z,95677.59
2018-08-28T12:25:47.655Z,95665.85
2018-08-28T12:28:17.015Z,95666.09
2018-08-28T12:30:46.082Z,95664.47
2018-08-28T12:33:15.125Z,95664.92
2018-08-28T12:38:19.905Z,95647.77
2018-08-28T12:40:49.016Z,95646.02
2018-08-28T12:43:18.103Z,95643.11
2018-08-28T12:45:47.176Z,95645.73
2018-08-28T12:53:28.519Z,95636.77
2018-08-28T12:55:57.555Z,95634.16
2018-08-28T12:58:26.961Z,95630.92
2018-08-28T13:00:56.009Z,95629.34
2018-08-28T13:03:25.069Z,95623.71
2018-08-28T13:05:54.439Z,95622.64
2018-08-28T13:08:23.489Z,95625.68
2018-08-28T13:10:52.572Z,95626.30
2018-08-28T13:13:21.743Z,95627.14
2018-08-28T13:15:50.838Z,95626.13
2018-08-28T13:18:19.906Z,95625.94
2018-08-28T13:23:24.673Z,95621.22
2018-08-28T13:25:54.179Z,95620.77
2018-08-28T13:28:23.358Z,95616.77
2018-08-28T13:30:52.434Z,95616.90
2018-08-28T13:35:57.315Z,95615.44
2018-08-28T13:38:27.535Z,95609.75
2018-08-28T13:40:56.590Z,95614.31
2018-08-28T13:43:25.642Z,95618.58
2018-08-28T13:45:55.016Z,95616.00
2018-08-28T13:48:27.494Z,95614.42
2018-08-28T13:50:56.560Z,95604.16
2018-08-28T13:53:29.771Z,95609.23
2018-08-28T13:56:02.537Z,95606.19
2018-08-28T13:58:32.416Z,95612.01
2018-08-28T14:03:38.552Z,95606.31
2018-08-28T14:06:07.601Z,95600.85
2018-08-28T14:11:12.548Z,95598.39
2018-08-28T14:13:41.637Z,95594.64
2018-08-28T14:16:10.975Z,95597.55
2018-08-28T14:21:15.885Z,95595.64
2018-08-28T14:23:44.943Z,95594.30
2018-08-28T14:26:14.005Z,95599.28
2018-08-28T14:31:18.949Z,95595.89
2018-08-28T14:36:23.699Z,95589.20
2018-08-28T14:38:55.832Z,95587.53
2018-08-28T14:41:24.889Z,95592.77
2018-08-28T14:46:30.058Z,95590.38
2018-08-28T14:48:59.197Z,95587.80
2018-08-28T14:51:28.259Z,95582.77
2018-08-28T14:53:57.318Z,95588.77
2018-08-28T14:56:26.818Z,95587.45
2018-08-28T14:58:55.829Z,95583.59
2018-08-28T15:01:24.935Z,95585.38
2018-08-28T15:03:54.739Z,95590.91
2018-08-28T15:09:00.180Z,95587.03
2018-08-28T15:11:29.228Z,95588.44
2018-08-28T15:13:58.314Z,95591.38
2018-08-28T15:19:04.162Z,95594.92
2018-08-28T15:21:33.197Z,95596.70
2018-08-28T15:24:02.265Z,95589.28
2018-08-28T15:26:31.482Z,95579.56
2018-08-28T15:29:00.662Z,95581.12
2018-08-28T15:31:29.735Z,95581.79
2018-08-28T15:33:59.127Z,95573.98
2018-08-28T15:36:28.182Z,95571.92
2018-08-28T15:38:57.236Z,95571.34
2018-08-28T15:41:27.473Z,95572.91
2018-08-28T15:43:58.535Z,95571.23
2018-08-28T15:46:27.611Z,95573.07
2018-08-28T15:48:56.646Z,95573.72
2018-08-28T15:51:25.749Z,95569.34
2018-08-28T15:53:54.769Z,95567.91
2018-08-28T15:56:24.734Z,95574.25
2018-08-28T15:58:53.795Z,95568.75
2018-08-28T16:01:22.925Z,95571.80
2018-08-28T16:03:52.973Z,95569.70
2018-08-28T16:06:24.012Z,95575.20
2018-08-28T16:08:53.337Z,95579.34
2018-08-28T16:13:58.350Z,95578.95
2018-08-28T16:16:27.409Z,95572.66
2018-08-28T16:18:56.460Z,95578.76
2018-08-28T16:21:25.977Z,95579.08
2018-08-28T16:23:55.043Z,95579.61
2018-08-28T16:26:24.101Z,95579.98
2018-08-28T16:28:53.413Z,95580.84
2018-08-28T16:31:22.466Z,95575.59
2018-08-28T16:33:57.138Z,95580.95
2018-08-28T16:36:26.197Z,95578.03
2018-08-28T16:38:55.229Z,95578.66
2018-08-28T16:41:24.291Z,95575.81
2018-08-28T16:46:29.178Z,95571.81
2018-08-28T16:48:58.242Z,95571.19
2018-08-28T16:51:27.290Z,95572.61
2018-08-28T16:53:56.346Z,95569.77
2018-08-28T16:56:25.394Z,95568.02
2018-08-28T16:58:54.461Z,95568.23
2018-08-28T17:01:23.544Z,95568.30
2018-08-28T17:03:52.539Z,95563.05
2018-08-28T17:06:22.017Z,95564.53
2018-08-28T17:08:51.065Z,95563.97
2018-08-28T17:11:20.147Z,95565.81
2018-08-28T17:16:25.049Z,95561.23
2018-08-28T17:18:54.106Z,95564.50
2018-08-28T17:21:24.108Z,95566.22
2018-08-28T17:23:53.161Z,95565.84
2018-08-28T17:26:22.227Z,95563.84
2018-08-28T17:28:51.277Z,95568.97
2018-08-28T17:31:21.294Z,95565.31
2018-08-28T17:33:51.362Z,95569.27
2018-08-28T17:38:56.233Z,95568.14
2018-08-28T17:41:25.300Z,95566.55
2018-08-28T17:43:55.321Z,95569.25
2018-08-28T17:46:26.285Z,95567.11
2018-08-28T17:48:55.427Z,95570.29
2018-08-28T17:51:24.418Z,95568.86
2018-08-28T17:53:53.457Z,95570.69
2018-08-28T17:56:22.933Z,95570.47
2018-08-28T17:58:51.986Z,95575.10
2018-08-28T18:01:21.138Z,95577.63
2018-08-28T18:03:50.150Z,95573.77
2018-08-28T18:06:19.182Z,95577.90
2018-08-28T18:08:48.253Z,95578.33
2018-08-28T18:13:53.066Z,95579.16
2018-08-28T18:18:57.916Z,95590.63
2018-08-28T18:24:02.753Z,95588.61
2018-08-28T18:29:07.512Z,95594.26
2018-08-28T18:31:36.553Z,95593.80
2018-08-28T18:34:05.609Z,95598.45
2018-08-28T18:36:34.668Z,95594.43
2018-08-28T18:39:03.739Z,95600.94
2018-08-28T18:41:32.837Z,95598.92
2018-08-28T18:44:01.881Z,95601.00
2018-08-28T18:49:06.770Z,95599.86
2018-08-28T18:51:35.830Z,95600.97
2018-08-28T18:54:04.880Z,95604.72
2018-08-28T18:56:33.926Z,95606.39
2018-08-28T18:59:02.974Z,95602.87
2018-08-28T19:01:32.039Z,95603.30
2018-08-28T19:04:01.336Z,95601.77
2018-08-28T19:09:06.860Z,95603.49
2018-08-28T19:11:35.889Z,95606.80
2018-08-28T19:14:04.935Z,95607.20
2018-08-28T19:16:36.008Z,95608.28
2018-08-28T19:19:05.042Z,95604.23
2018-08-28T19:21:34.105Z,95610.09
2018-08-28T19:26:38.909Z,95609.25
2018-08-28T19:29:07.972Z,95610.44
2018-08-28T19:31:37.057Z,95616.54
2018-08-28T19:34:06.108Z,95617.52
2018-08-28T19:36:35.117Z,95614.61
2018-08-28T19:39:04.161Z,95615.15
2018-08-28T19:41:33.217Z,95611.65
2018-08-28T19:44:02.277Z,95610.13
2018-08-28T19:46:31.341Z,95612.66
2018-08-28T19:49:00.385Z,95609.63
2018-08-28T19:54:05.226Z,95613.05
2018-08-28T19:56:35.225Z,95615.77
2018-08-28T19:59:04.341Z,95614.74
2018-08-28T20:01:33.389Z,95612.89
2018-08-28T20:04:02.541Z,95613.54
2018-08-28T20:06:31.535Z,95612.04
2018-08-28T20:09:00.600Z,95614.70
2018-08-28T20:11:29.642Z,95613.03
2018-08-28T20:13:58.694Z,95614.92
2018-08-28T20:16:27.758Z,95613.94
2018-08-28T20:18:56.873Z,95611.69
2018-08-28T20:24:01.694Z,95615.66
2018-08-28T20:29:06.440Z,95613.45
2018-08-28T20:31:45.457Z,95617.95
2018-08-28T20:34:16.903Z,95610.75
2018-08-28T20:36:45.950Z,95608.17
2018-08-28T20:39:15.005Z,95608.55
2018-08-28T20:41:44.085Z,95607.84
2018-08-28T20:44:15.147Z,95605.69
2018-08-28T20:46:44.196Z,95605.00
2018-08-28T20:51:49.038Z,95594.01
2018-08-28T20:54:18.091Z,95590.30
2018-08-28T20:59:22.863Z,95587.89
2018-08-28T21:01:51.934Z,95587.34
2018-08-28T21:04:20.982Z,95591.81
2018-08-28T21:06:50.147Z,95587.41
2018-08-28T21:09:20.055Z,95586.94
2018-08-28T21:17:00.701Z,95591.84
2018-08-28T21:19:31.725Z,95591.73
2018-08-28T21:22:00.770Z,95592.59
2018-08-28T21:24:29.823Z,95586.20
2018-08-28T21:26:58.998Z,95584.50
2018-08-28T21:32:03.797Z,95580.61
2018-08-28T21:34:32.909Z,95574.58
2018-08-28T21:37:01.983Z,95574.42
2018-08-28T21:39:31.037Z,95564.08
2018-08-28T21:42:00.119Z,95563.57
2018-08-28T21:44:29.156Z,95565.67
2018-08-28T21:52:09.681Z,95558.41
2018-08-28T21:54:38.746Z,95558.52
2018-08-28T21:59:43.518Z,95552.27
2018-08-28T22:02:14.549Z,95544.99
2018-08-28T22:04:43.614Z,95541.80
2018-08-28T22:07:12.671Z,95538.23
2018-08-28T22:09:41.742Z,95536.50
2018-08-28T22:14:46.523Z,95531.77
2018-08-28T22:17:15.594Z,95531.48
2018-08-28T22:19:44.664Z,95522.46
2018-08-28T22:22:14.711Z,95528.13
2018-08-28T22:27:19.482Z,95529.15
2018-08-28T22:29:49.489Z,95524.48
2018-08-28T22:32:19.503Z,95516.75
2018-08-28T22:37:24.285Z,95516.63
2018-08-28T22:42:29.118Z,95519.44
2018-08-28T22:44:59.133Z,95514.63
2018-08-28T22:47:28.213Z,95513.13
2018-08-28T22:55:08.758Z,95510.84
2018-08-28T23:00:13.625Z,95505.09
2018-08-28T23:02:42.692Z,95502.00
2018-08-28T23:05:11.749Z,95498.63
2018-08-28T23:07:40.957Z,95495.50
2018-08-28T23:10:10.033Z,95497.58
2018-08-28T23:12:39.090Z,95493.84
2018-08-28T23:15:08.147Z,95493.27
2018-08-28T23:17:37.206Z,95496.97
2018-08-28T23:20:07.123Z,95494.87
2018-08-28T23:22:37.105Z,95494.64
2018-08-28T23:27:41.889Z,95488.08
2018-08-28T23:30:10.972Z,95485.92
2018-08-28T23:32:40.037Z,95485.97
2018-08-28T23:35:09.098Z,95482.72
2018-08-28T23:37:38.271Z,95479.91
2018-08-28T23:40:07.340Z,95474.79
2018-08-28T23:42:36.407Z,95476.23
2018-08-28T23:45:05.489Z,95479.77
2018-08-28T23:47:34.553Z,95472.95
2018-08-28T23:52:39.330Z,95469.19
2018-08-28T23:55:08.397Z,95468.64
2018-08-28T23:57:38.418Z,95467.97
